Hlavní strana
METAR-TAF:

METAR-TAF

Letiště :

Førde, Norsko

zeměpisná šířka: 61-27N, zeměpisná délka: 005-52E, výška: 150 m

Aktuální stav počasí

Zpráva byla vytvořena před 18 minutami, v 05:20 UTC
Západojihozápadní vítr 6 kt, proměnlivý mezi jižním a západoseverozápadním
Teplota 4°C
Vlhkost vzduchu 87%
Tlak 1012 hPa
Viditelnost 10 km a více
Skoro jasno ve výšce 1500 ft
Polojasno ve výšce 2000 ft
Oblačno až skoro zataženo ve výšce 2500 ft
slabé dešťové přeháňky

METAR: ENBL 200520Z 25006KT 190V290 9999 -SHRA FEW015 SCT020 BKN025 04/02 Q1012

Čas: 06:38 (05:38 UTC)


TAF: chybějící

Stav a předpovědi počasí z více než 4 000 letišť (zprávy METAR a TAF).

Červené a žluté tečky na mapě představují dostupné meteorologické stanice.

Když kurzor umístíte na tečku, zobrazí se název stanice.

Pak kliknutím zobrazíte stav a předpověď počasí.

Chcete-li změnit mapu, kliknutím na zelené tlačítko se znaménkem +mapu přiblížíte, kliknutím na zelené tlačítko se znaménkem – mapu oddálíte a kliknutím na zelené šipky přejdete na sousední mapy.


METAR-TAF: